sensor_id;sensor_type;location;lat;lon;timestamp;P1;durP1;ratioP1;P2;durP2;ratioP2
15952;SDS011;8075;47.766;8.846;2023-09-19T00:00:21;1.33;;;1.23;;
15952;SDS011;8075;47.766;8.846;2023-09-19T00:02:58;1.80;;;1.30;;
15952;SDS011;8075;47.766;8.846;2023-09-19T00:05:25;1.90;;;1.40;;
15952;SDS011;8075;47.766;8.846;2023-09-19T00:07:53;1.60;;;1.17;;
15952;SDS011;8075;47.766;8.846;2023-09-19T00:10:19;2.17;;;1.55;;
15952;SDS011;8075;47.766;8.846;2023-09-19T00:12:46;2.30;;;1.50;;
15952;SDS011;8075;47.766;8.846;2023-09-19T00:15:12;2.08;;;1.42;;
15952;SDS011;8075;47.766;8.846;2023-09-19T00:17:42;2.20;;;1.50;;
15952;SDS011;8075;47.766;8.846;2023-09-19T00:20:08;2.47;;;1.50;;
15952;SDS011;8075;47.766;8.846;2023-09-19T00:22:41;1.90;;;1.50;;
15952;SDS011;8075;47.766;8.846;2023-09-19T00:25:08;2.13;;;1.40;;
15952;SDS011;8075;47.766;8.846;2023-09-19T00:27:35;3.00;;;1.70;;
15952;SDS011;8075;47.766;8.846;2023-09-19T00:30:06;1.60;;;1.30;;
15952;SDS011;8075;47.766;8.846;2023-09-19T00:32:41;1.40;;;1.30;;
15952;SDS011;8075;47.766;8.846;2023-09-19T00:35:07;2.40;;;1.40;;
15952;SDS011;8075;47.766;8.846;2023-09-19T00:37:37;2.17;;;1.42;;
15952;SDS011;8075;47.766;8.846;2023-09-19T00:40:05;2.85;;;1.30;;
15952;SDS011;8075;47.766;8.846;2023-09-19T00:42:31;1.05;;;0.95;;
15952;SDS011;8075;47.766;8.846;2023-09-19T00:44:58;3.00;;;1.30;;
15952;SDS011;8075;47.766;8.846;2023-09-19T00:47:28;2.15;;;1.27;;
15952;SDS011;8075;47.766;8.846;2023-09-19T00:49:54;2.40;;;1.38;;
15952;SDS011;8075;47.766;8.846;2023-09-19T00:52:21;1.67;;;1.42;;
15952;SDS011;8075;47.766;8.846;2023-09-19T00:54:48;1.63;;;1.20;;
15952;SDS011;8075;47.766;8.846;2023-09-19T00:57:15;1.90;;;1.20;;
15952;SDS011;8075;47.766;8.846;2023-09-19T00:59:42;3.03;;;1.27;;
15952;SDS011;8075;47.766;8.846;2023-09-19T01:02:08;1.73;;;1.30;;
15952;SDS011;8075;47.766;8.846;2023-09-19T01:04:34;2.95;;;1.58;;
15952;SDS011;8075;47.766;8.846;2023-09-19T01:07:01;2.17;;;1.57;;
15952;SDS011;8075;47.766;8.846;2023-09-19T01:09:27;2.08;;;1.40;;
15952;SDS011;8075;47.766;8.846;2023-09-19T01:11:53;1.93;;;1.40;;
15952;SDS011;8075;47.766;8.846;2023-09-19T01:17:24;2.47;;;1.30;;
15952;SDS011;8075;47.766;8.846;2023-09-19T01:22:16;1.80;;;1.50;;
15952;SDS011;8075;47.766;8.846;2023-09-19T01:30:14;1.92;;;1.30;;
15952;SDS011;8075;47.766;8.846;2023-09-19T01:32:40;1.95;;;1.45;;
15952;SDS011;8075;47.766;8.846;2023-09-19T01:35:08;1.50;;;1.27;;
15952;SDS011;8075;47.766;8.846;2023-09-19T01:37:37;2.63;;;1.30;;
15952;SDS011;8075;47.766;8.846;2023-09-19T01:40:04;1.63;;;1.20;;
15952;SDS011;8075;47.766;8.846;2023-09-19T01:45:19;1.65;;;1.23;;
15952;SDS011;8075;47.766;8.846;2023-09-19T01:47:56;2.38;;;1.58;;
15952;SDS011;8075;47.766;8.846;2023-09-19T01:50:32;1.90;;;1.40;;
15952;SDS011;8075;47.766;8.846;2023-09-19T01:53:10;1.80;;;1.47;;
15952;SDS011;8075;47.766;8.846;2023-09-19T01:55:40;3.83;;;1.50;;
15952;SDS011;8075;47.766;8.846;2023-09-19T01:58:15;2.45;;;1.70;;
15952;SDS011;8075;47.766;8.846;2023-09-19T02:00:42;2.13;;;1.40;;
15952;SDS011;8075;47.766;8.846;2023-09-19T02:03:09;1.70;;;1.20;;
15952;SDS011;8075;47.766;8.846;2023-09-19T02:05:36;2.57;;;1.30;;
15952;SDS011;8075;47.766;8.846;2023-09-19T02:08:04;3.10;;;1.52;;
15952;SDS011;8075;47.766;8.846;2023-09-19T02:10:30;2.63;;;1.15;;
15952;SDS011;8075;47.766;8.846;2023-09-19T02:12:56;2.77;;;1.23;;
15952;SDS011;8075;47.766;8.846;2023-09-19T02:15:24;2.95;;;1.48;;
15952;SDS011;8075;47.766;8.846;2023-09-19T02:17:50;2.25;;;1.50;;
15952;SDS011;8075;47.766;8.846;2023-09-19T02:20:16;3.40;;;1.27;;
15952;SDS011;8075;47.766;8.846;2023-09-19T02:22:44;1.75;;;1.35;;
15952;SDS011;8075;47.766;8.846;2023-09-19T02:25:10;2.10;;;1.50;;
15952;SDS011;8075;47.766;8.846;2023-09-19T02:27:38;2.30;;;1.42;;
15952;SDS011;8075;47.766;8.846;2023-09-19T02:30:05;1.58;;;1.38;;
15952;SDS011;8075;47.766;8.846;2023-09-19T02:32:31;2.10;;;1.52;;
15952;SDS011;8075;47.766;8.846;2023-09-19T02:35:00;2.00;;;1.30;;
15952;SDS011;8075;47.766;8.846;2023-09-19T02:37:27;1.95;;;1.00;;
15952;SDS011;8075;47.766;8.846;2023-09-19T02:39:53;2.83;;;1.60;;
15952;SDS011;8075;47.766;8.846;2023-09-19T02:42:19;2.60;;;1.50;;
15952;SDS011;8075;47.766;8.846;2023-09-19T02:44:45;2.05;;;1.33;;
15952;SDS011;8075;47.766;8.846;2023-09-19T02:47:12;3.13;;;1.70;;
15952;SDS011;8075;47.766;8.846;2023-09-19T02:49:40;2.53;;;1.50;;
15952;SDS011;8075;47.766;8.846;2023-09-19T02:52:07;3.33;;;1.70;;
15952;SDS011;8075;47.766;8.846;2023-09-19T02:54:33;2.10;;;1.40;;
15952;SDS011;8075;47.766;8.846;2023-09-19T02:56:59;2.40;;;1.50;;
15952;SDS011;8075;47.766;8.846;2023-09-19T02:59:25;2.60;;;1.75;;
15952;SDS011;8075;47.766;8.846;2023-09-19T03:01:53;4.13;;;2.00;;
15952;SDS011;8075;47.766;8.846;2023-09-19T03:04:19;3.05;;;1.60;;
15952;SDS011;8075;47.766;8.846;2023-09-19T03:06:45;3.20;;;1.75;;
15952;SDS011;8075;47.766;8.846;2023-09-19T03:09:16;2.05;;;1.38;;
15952;SDS011;8075;47.766;8.846;2023-09-19T03:11:42;2.20;;;1.73;;
15952;SDS011;8075;47.766;8.846;2023-09-19T03:14:11;1.85;;;1.38;;
15952;SDS011;8075;47.766;8.846;2023-09-19T03:16:37;2.10;;;1.17;;
15952;SDS011;8075;47.766;8.846;2023-09-19T03:19:03;1.85;;;1.50;;
15952;SDS011;8075;47.766;8.846;2023-09-19T03:21:30;2.22;;;1.70;;
15952;SDS011;8075;47.766;8.846;2023-09-19T03:23:56;2.67;;;1.45;;
15952;SDS011;8075;47.766;8.846;2023-09-19T03:26:22;2.58;;;1.60;;
15952;SDS011;8075;47.766;8.846;2023-09-19T03:28:48;1.67;;;1.30;;
15952;SDS011;8075;47.766;8.846;2023-09-19T03:31:14;2.10;;;1.20;;
15952;SDS011;8075;47.766;8.846;2023-09-19T03:33:40;1.67;;;1.00;;
15952;SDS011;8075;47.766;8.846;2023-09-19T03:36:06;2.40;;;1.20;;
15952;SDS011;8075;47.766;8.846;2023-09-19T03:38:33;1.73;;;1.20;;
15952;SDS011;8075;47.766;8.846;2023-09-19T03:41:00;2.70;;;1.05;;
15952;SDS011;8075;47.766;8.846;2023-09-19T03:43:26;2.08;;;1.30;;
15952;SDS011;8075;47.766;8.846;2023-09-19T03:45:53;2.50;;;1.50;;
15952;SDS011;8075;47.766;8.846;2023-09-19T03:48:19;1.83;;;1.17;;
15952;SDS011;8075;47.766;8.846;2023-09-19T03:50:47;1.40;;;1.30;;
15952;SDS011;8075;47.766;8.846;2023-09-19T03:53:13;2.17;;;1.33;;
15952;SDS011;8075;47.766;8.846;2023-09-19T03:55:39;1.60;;;1.10;;
15952;SDS011;8075;47.766;8.846;2023-09-19T03:58:05;2.08;;;1.20;;
15952;SDS011;8075;47.766;8.846;2023-09-19T04:00:31;1.80;;;1.20;;
15952;SDS011;8075;47.766;8.846;2023-09-19T04:02:59;1.50;;;1.20;;
15952;SDS011;8075;47.766;8.846;2023-09-19T04:05:27;2.00;;;1.08;;
15952;SDS011;8075;47.766;8.846;2023-09-19T04:07:53;2.13;;;1.20;;
15952;SDS011;8075;47.766;8.846;2023-09-19T04:10:19;2.63;;;1.20;;
15952;SDS011;8075;47.766;8.846;2023-09-19T04:12:55;1.67;;;1.23;;
15952;SDS011;8075;47.766;8.846;2023-09-19T04:15:21;1.85;;;1.25;;
15952;SDS011;8075;47.766;8.846;2023-09-19T04:17:48;1.88;;;1.10;;
15952;SDS011;8075;47.766;8.846;2023-09-19T04:20:14;1.23;;;1.10;;
15952;SDS011;8075;47.766;8.846;2023-09-19T04:22:41;2.20;;;1.10;;
15952;SDS011;8075;47.766;8.846;2023-09-19T04:25:07;1.35;;;1.15;;
15952;SDS011;8075;47.766;8.846;2023-09-19T04:27:33;1.10;;;0.95;;
15952;SDS011;8075;47.766;8.846;2023-09-19T04:29:59;1.27;;;1.00;;
15952;SDS011;8075;47.766;8.846;2023-09-19T04:32:30;2.10;;;1.45;;
15952;SDS011;8075;47.766;8.846;2023-09-19T04:34:57;1.85;;;1.00;;
15952;SDS011;8075;47.766;8.846;2023-09-19T04:37:25;2.15;;;1.10;;
15952;SDS011;8075;47.766;8.846;2023-09-19T04:39:51;1.90;;;1.10;;
15952;SDS011;8075;47.766;8.846;2023-09-19T04:42:17;1.17;;;1.00;;
15952;SDS011;8075;47.766;8.846;2023-09-19T04:44:44;1.40;;;1.08;;
15952;SDS011;8075;47.766;8.846;2023-09-19T04:47:10;2.15;;;1.30;;
15952;SDS011;8075;47.766;8.846;2023-09-19T04:49:37;1.30;;;1.20;;
15952;SDS011;8075;47.766;8.846;2023-09-19T04:52:04;2.15;;;1.20;;
15952;SDS011;8075;47.766;8.846;2023-09-19T04:54:31;1.77;;;1.30;;
15952;SDS011;8075;47.766;8.846;2023-09-19T04:56:58;2.00;;;1.13;;
15952;SDS011;8075;47.766;8.846;2023-09-19T04:59:25;1.40;;;1.00;;
15952;SDS011;8075;47.766;8.846;2023-09-19T05:01:51;1.80;;;1.20;;
15952;SDS011;8075;47.766;8.846;2023-09-19T05:04:17;2.25;;;1.15;;
15952;SDS011;8075;47.766;8.846;2023-09-19T05:06:43;1.40;;;1.30;;
15952;SDS011;8075;47.766;8.846;2023-09-19T05:09:09;2.83;;;1.20;;
15952;SDS011;8075;47.766;8.846;2023-09-19T05:11:35;2.45;;;1.10;;
15952;SDS011;8075;47.766;8.846;2023-09-19T05:14:03;1.95;;;1.13;;
15952;SDS011;8075;47.766;8.846;2023-09-19T05:16:31;1.98;;;1.15;;
15952;SDS011;8075;47.766;8.846;2023-09-19T05:18:58;1.20;;;1.00;;
15952;SDS011;8075;47.766;8.846;2023-09-19T05:21:25;3.58;;;1.38;;
15952;SDS011;8075;47.766;8.846;2023-09-19T05:23:54;1.90;;;1.30;;
15952;SDS011;8075;47.766;8.846;2023-09-19T05:26:20;2.30;;;1.50;;
15952;SDS011;8075;47.766;8.846;2023-09-19T05:28:46;3.07;;;1.50;;
15952;SDS011;8075;47.766;8.846;2023-09-19T05:31:15;4.22;;;1.45;;
15952;SDS011;8075;47.766;8.846;2023-09-19T05:33:41;2.85;;;1.42;;
15952;SDS011;8075;47.766;8.846;2023-09-19T05:36:08;2.85;;;1.50;;
15952;SDS011;8075;47.766;8.846;2023-09-19T05:38:37;2.53;;;1.13;;
15952;SDS011;8075;47.766;8.846;2023-09-19T05:41:06;3.45;;;1.15;;
15952;SDS011;8075;47.766;8.846;2023-09-19T05:43:33;2.83;;;1.17;;
15952;SDS011;8075;47.766;8.846;2023-09-19T05:45:59;1.67;;;1.05;;
15952;SDS011;8075;47.766;8.846;2023-09-19T05:48:26;2.50;;;1.23;;
15952;SDS011;8075;47.766;8.846;2023-09-19T05:50:52;3.88;;;1.13;;
15952;SDS011;8075;47.766;8.846;2023-09-19T05:53:18;2.67;;;1.10;;
15952;SDS011;8075;47.766;8.846;2023-09-19T05:55:44;2.42;;;1.10;;
15952;SDS011;8075;47.766;8.846;2023-09-19T05:58:10;1.00;;;0.80;;
15952;SDS011;8075;47.766;8.846;2023-09-19T06:00:39;1.75;;;0.90;;
15952;SDS011;8075;47.766;8.846;2023-09-19T06:03:07;1.67;;;0.90;;
15952;SDS011;8075;47.766;8.846;2023-09-19T06:05:33;2.58;;;1.00;;
15952;SDS011;8075;47.766;8.846;2023-09-19T06:07:59;1.92;;;0.98;;
15952;SDS011;8075;47.766;8.846;2023-09-19T06:10:25;1.20;;;0.90;;
15952;SDS011;8075;47.766;8.846;2023-09-19T06:12:53;1.98;;;0.90;;
15952;SDS011;8075;47.766;8.846;2023-09-19T06:15:20;1.20;;;0.90;;
15952;SDS011;8075;47.766;8.846;2023-09-19T06:17:55;0.98;;;0.70;;
15952;SDS011;8075;47.766;8.846;2023-09-19T06:20:22;3.38;;;0.98;;
15952;SDS011;8075;47.766;8.846;2023-09-19T06:22:49;1.70;;;0.73;;
15952;SDS011;8075;47.766;8.846;2023-09-19T06:25:15;1.00;;;0.80;;
15952;SDS011;8075;47.766;8.846;2023-09-19T06:27:45;1.45;;;1.35;;
15952;SDS011;8075;47.766;8.846;2023-09-19T06:30:11;1.47;;;0.97;;
15952;SDS011;8075;47.766;8.846;2023-09-19T06:32:41;1.95;;;0.80;;
15952;SDS011;8075;47.766;8.846;2023-09-19T06:35:10;1.73;;;1.00;;
15952;SDS011;8075;47.766;8.846;2023-09-19T06:37:37;2.13;;;0.80;;
15952;SDS011;8075;47.766;8.846;2023-09-19T06:40:07;1.27;;;0.90;;
15952;SDS011;8075;47.766;8.846;2023-09-19T06:42:35;1.13;;;0.90;;
15952;SDS011;8075;47.766;8.846;2023-09-19T06:45:02;1.52;;;0.80;;
15952;SDS011;8075;47.766;8.846;2023-09-19T06:47:28;1.27;;;0.80;;
15952;SDS011;8075;47.766;8.846;2023-09-19T06:49:55;1.85;;;0.98;;
15952;SDS011;8075;47.766;8.846;2023-09-19T06:52:21;2.40;;;0.80;;
15952;SDS011;8075;47.766;8.846;2023-09-19T06:54:47;1.85;;;0.82;;
15952;SDS011;8075;47.766;8.846;2023-09-19T06:57:15;1.52;;;1.00;;
15952;SDS011;8075;47.766;8.846;2023-09-19T06:59:41;1.10;;;0.70;;
15952;SDS011;8075;47.766;8.846;2023-09-19T07:02:07;1.57;;;0.80;;
15952;SDS011;8075;47.766;8.846;2023-09-19T07:04:33;0.93;;;0.70;;
15952;SDS011;8075;47.766;8.846;2023-09-19T07:06:59;2.10;;;0.95;;
15952;SDS011;8075;47.766;8.846;2023-09-19T07:09:25;1.38;;;0.70;;
15952;SDS011;8075;47.766;8.846;2023-09-19T07:11:52;1.10;;;0.73;;
15952;SDS011;8075;47.766;8.846;2023-09-19T07:14:18;1.77;;;1.13;;
15952;SDS011;8075;47.766;8.846;2023-09-19T07:16:44;1.85;;;1.08;;
15952;SDS011;8075;47.766;8.846;2023-09-19T07:19:12;1.40;;;0.90;;
15952;SDS011;8075;47.766;8.846;2023-09-19T07:21:40;1.58;;;0.85;;
15952;SDS011;8075;47.766;8.846;2023-09-19T07:24:07;2.85;;;1.05;;
15952;SDS011;8075;47.766;8.846;2023-09-19T07:26:33;2.22;;;0.90;;
15952;SDS011;8075;47.766;8.846;2023-09-19T07:28:59;1.25;;;0.82;;
15952;SDS011;8075;47.766;8.846;2023-09-19T07:31:28;1.70;;;1.05;;
15952;SDS011;8075;47.766;8.846;2023-09-19T07:33:55;1.30;;;0.80;;
15952;SDS011;8075;47.766;8.846;2023-09-19T07:36:21;2.20;;;1.00;;
15952;SDS011;8075;47.766;8.846;2023-09-19T07:38:49;1.52;;;0.90;;
15952;SDS011;8075;47.766;8.846;2023-09-19T07:41:15;1.05;;;0.65;;
15952;SDS011;8075;47.766;8.846;2023-09-19T07:43:41;0.75;;;0.60;;
15952;SDS011;8075;47.766;8.846;2023-09-19T07:46:08;2.17;;;0.73;;
15952;SDS011;8075;47.766;8.846;2023-09-19T07:48:35;0.93;;;0.70;;
15952;SDS011;8075;47.766;8.846;2023-09-19T07:51:02;1.38;;;0.80;;
15952;SDS011;8075;47.766;8.846;2023-09-19T07:53:28;1.50;;;0.80;;
15952;SDS011;8075;47.766;8.846;2023-09-19T07:56:01;1.73;;;0.70;;
15952;SDS011;8075;47.766;8.846;2023-09-19T07:58:27;1.33;;;0.80;;
15952;SDS011;8075;47.766;8.846;2023-09-19T08:00:53;1.00;;;0.90;;
15952;SDS011;8075;47.766;8.846;2023-09-19T08:03:19;1.55;;;0.85;;
15952;SDS011;8075;47.766;8.846;2023-09-19T08:05:45;2.00;;;0.90;;
15952;SDS011;8075;47.766;8.846;2023-09-19T08:08:13;1.73;;;0.70;;
15952;SDS011;8075;47.766;8.846;2023-09-19T08:10:39;3.15;;;0.90;;
15952;SDS011;8075;47.766;8.846;2023-09-19T08:13:07;1.05;;;0.60;;
15952;SDS011;8075;47.766;8.846;2023-09-19T08:15:42;1.75;;;1.00;;
15952;SDS011;8075;47.766;8.846;2023-09-19T08:18:12;1.17;;;0.70;;
15952;SDS011;8075;47.766;8.846;2023-09-19T08:20:38;1.33;;;0.73;;
15952;SDS011;8075;47.766;8.846;2023-09-19T08:23:07;1.75;;;0.80;;
15952;SDS011;8075;47.766;8.846;2023-09-19T08:25:33;1.35;;;0.90;;
15952;SDS011;8075;47.766;8.846;2023-09-19T08:27:59;1.50;;;0.70;;
15952;SDS011;8075;47.766;8.846;2023-09-19T08:30:28;1.20;;;0.80;;
15952;SDS011;8075;47.766;8.846;2023-09-19T08:32:58;1.52;;;0.70;;
15952;SDS011;8075;47.766;8.846;2023-09-19T08:35:24;1.70;;;0.82;;
15952;SDS011;8075;47.766;8.846;2023-09-19T08:37:50;1.70;;;0.80;;
15952;SDS011;8075;47.766;8.846;2023-09-19T08:40:16;2.60;;;0.80;;
15952;SDS011;8075;47.766;8.846;2023-09-19T08:42:52;0.88;;;0.68;;
15952;SDS011;8075;47.766;8.846;2023-09-19T08:45:22;1.27;;;0.70;;
15952;SDS011;8075;47.766;8.846;2023-09-19T08:50:33;1.70;;;0.80;;
15952;SDS011;8075;47.766;8.846;2023-09-19T08:53:02;1.55;;;0.80;;
15952;SDS011;8075;47.766;8.846;2023-09-19T08:55:36;0.77;;;0.60;;
15952;SDS011;8075;47.766;8.846;2023-09-19T08:58:06;1.92;;;0.70;;
15952;SDS011;8075;47.766;8.846;2023-09-19T09:00:32;1.42;;;0.80;;
15952;SDS011;8075;47.766;8.846;2023-09-19T09:03:01;1.30;;;0.70;;
15952;SDS011;8075;47.766;8.846;2023-09-19T09:05:29;1.30;;;0.70;;
15952;SDS011;8075;47.766;8.846;2023-09-19T09:07:55;1.77;;;0.75;;
15952;SDS011;8075;47.766;8.846;2023-09-19T09:10:22;0.80;;;0.50;;
15952;SDS011;8075;47.766;8.846;2023-09-19T09:12:50;1.47;;;0.83;;
15952;SDS011;8075;47.766;8.846;2023-09-19T09:15:17;2.08;;;0.90;;
15952;SDS011;8075;47.766;8.846;2023-09-19T09:17:47;10.02;;;1.10;;
15952;SDS011;8075;47.766;8.846;2023-09-19T09:20:15;1.27;;;0.70;;
15952;SDS011;8075;47.766;8.846;2023-09-19T09:22:54;7.30;;;1.20;;
15952;SDS011;8075;47.766;8.846;2023-09-19T09:25:20;3.60;;;1.00;;
15952;SDS011;8075;47.766;8.846;2023-09-19T09:27:59;1.02;;;0.75;;
15952;SDS011;8075;47.766;8.846;2023-09-19T09:30:33;2.45;;;0.70;;
15952;SDS011;8075;47.766;8.846;2023-09-19T09:33:09;1.58;;;0.68;;
15952;SDS011;8075;47.766;8.846;2023-09-19T09:35:36;1.40;;;0.60;;
15952;SDS011;8075;47.766;8.846;2023-09-19T09:38:04;1.98;;;1.00;;
15952;SDS011;8075;47.766;8.846;2023-09-19T09:40:46;1.83;;;0.80;;
15952;SDS011;8075;47.766;8.846;2023-09-19T09:46:09;1.60;;;0.90;;
15952;SDS011;8075;47.766;8.846;2023-09-19T09:49:02;1.60;;;0.70;;
15952;SDS011;8075;47.766;8.846;2023-09-19T09:51:37;1.33;;;0.80;;
15952;SDS011;8075;47.766;8.846;2023-09-19T09:54:14;1.88;;;0.90;;
15952;SDS011;8075;47.766;8.846;2023-09-19T09:56:56;2.35;;;0.90;;
15952;SDS011;8075;47.766;8.846;2023-09-19T09:59:45;1.23;;;0.68;;
15952;SDS011;8075;47.766;8.846;2023-09-19T10:02:12;1.20;;;0.75;;
15952;SDS011;8075;47.766;8.846;2023-09-19T10:04:38;1.92;;;0.90;;
15952;SDS011;8075;47.766;8.846;2023-09-19T10:07:29;1.42;;;0.90;;
15952;SDS011;8075;47.766;8.846;2023-09-19T10:10:14;2.47;;;0.82;;
15952;SDS011;8075;47.766;8.846;2023-09-19T10:12:45;1.70;;;1.00;;
15952;SDS011;8075;47.766;8.846;2023-09-19T10:15:16;1.60;;;0.70;;
15952;SDS011;8075;47.766;8.846;2023-09-19T10:17:45;1.52;;;1.08;;
15952;SDS011;8075;47.766;8.846;2023-09-19T10:20:15;1.70;;;0.70;;
15952;SDS011;8075;47.766;8.846;2023-09-19T10:23:03;1.38;;;0.70;;
15952;SDS011;8075;47.766;8.846;2023-09-19T10:25:34;2.47;;;0.73;;
15952;SDS011;8075;47.766;8.846;2023-09-19T10:28:02;2.33;;;0.70;;
15952;SDS011;8075;47.766;8.846;2023-09-19T10:30:28;1.13;;;0.65;;
15952;SDS011;8075;47.766;8.846;2023-09-19T10:33:02;2.40;;;0.70;;
15952;SDS011;8075;47.766;8.846;2023-09-19T10:35:29;1.83;;;0.80;;
15952;SDS011;8075;47.766;8.846;2023-09-19T10:37:57;1.33;;;0.70;;
15952;SDS011;8075;47.766;8.846;2023-09-19T10:40:23;1.55;;;0.80;;
15952;SDS011;8075;47.766;8.846;2023-09-19T10:42:56;1.98;;;0.90;;
15952;SDS011;8075;47.766;8.846;2023-09-19T10:45:24;1.13;;;0.70;;
15952;SDS011;8075;47.766;8.846;2023-09-19T10:47:52;1.27;;;0.80;;
15952;SDS011;8075;47.766;8.846;2023-09-19T10:50:21;1.10;;;0.60;;
15952;SDS011;8075;47.766;8.846;2023-09-19T10:52:47;3.97;;;0.80;;
15952;SDS011;8075;47.766;8.846;2023-09-19T10:55:18;0.93;;;0.63;;
15952;SDS011;8075;47.766;8.846;2023-09-19T10:57:47;1.77;;;0.83;;
15952;SDS011;8075;47.766;8.846;2023-09-19T11:00:14;1.42;;;0.70;;
15952;SDS011;8075;47.766;8.846;2023-09-19T11:05:38;1.88;;;0.80;;
15952;SDS011;8075;47.766;8.846;2023-09-19T11:08:05;1.30;;;0.70;;
15952;SDS011;8075;47.766;8.846;2023-09-19T11:10:48;2.17;;;0.80;;
15952;SDS011;8075;47.766;8.846;2023-09-19T11:13:28;2.45;;;0.70;;
15952;SDS011;8075;47.766;8.846;2023-09-19T11:26:44;1.17;;;0.70;;
15952;SDS011;8075;47.766;8.846;2023-09-19T11:32:17;1.43;;;0.70;;
15952;SDS011;8075;47.766;8.846;2023-09-19T11:35:07;4.10;;;0.73;;
15952;SDS011;8075;47.766;8.846;2023-09-19T11:40:08;2.60;;;0.70;;
15952;SDS011;8075;47.766;8.846;2023-09-19T11:42:44;2.15;;;0.80;;
15952;SDS011;8075;47.766;8.846;2023-09-19T11:47:56;1.38;;;0.65;;
15952;SDS011;8075;47.766;8.846;2023-09-19T11:50:26;1.15;;;0.70;;
15952;SDS011;8075;47.766;8.846;2023-09-19T11:52:53;1.65;;;0.70;;
15952;SDS011;8075;47.766;8.846;2023-09-19T11:55:20;1.65;;;0.70;;
15952;SDS011;8075;47.766;8.846;2023-09-19T11:57:47;1.90;;;0.80;;
15952;SDS011;8075;47.766;8.846;2023-09-19T12:00:22;1.63;;;0.80;;
15952;SDS011;8075;47.766;8.846;2023-09-19T12:02:48;0.65;;;0.55;;
15952;SDS011;8075;47.766;8.846;2023-09-19T12:05:30;1.08;;;0.60;;
15952;SDS011;8075;47.766;8.846;2023-09-19T12:07:58;0.70;;;0.57;;
15952;SDS011;8075;47.766;8.846;2023-09-19T12:10:24;1.45;;;0.68;;
15952;SDS011;8075;47.766;8.846;2023-09-19T12:12:59;0.82;;;0.60;;
15952;SDS011;8075;47.766;8.846;2023-09-19T12:15:26;1.83;;;0.80;;
15952;SDS011;8075;47.766;8.846;2023-09-19T12:17:59;1.53;;;0.60;;
15952;SDS011;8075;47.766;8.846;2023-09-19T12:20:25;1.30;;;0.70;;
15952;SDS011;8075;47.766;8.846;2023-09-19T12:22:55;2.08;;;0.80;;
15952;SDS011;8075;47.766;8.846;2023-09-19T12:25:24;1.17;;;0.75;;
15952;SDS011;8075;47.766;8.846;2023-09-19T12:27:53;0.70;;;0.60;;
15952;SDS011;8075;47.766;8.846;2023-09-19T12:30:20;2.40;;;0.60;;
15952;SDS011;8075;47.766;8.846;2023-09-19T12:32:53;0.75;;;0.65;;
15952;SDS011;8075;47.766;8.846;2023-09-19T12:35:30;1.60;;;0.70;;
15952;SDS011;8075;47.766;8.846;2023-09-19T12:38:05;1.67;;;0.68;;
15952;SDS011;8075;47.766;8.846;2023-09-19T12:40:35;1.17;;;0.80;;
15952;SDS011;8075;47.766;8.846;2023-09-19T12:43:03;0.77;;;0.60;;
15952;SDS011;8075;47.766;8.846;2023-09-19T12:45:30;1.40;;;0.93;;
15952;SDS011;8075;47.766;8.846;2023-09-19T12:51:03;1.13;;;0.75;;
15952;SDS011;8075;47.766;8.846;2023-09-19T12:53:40;2.83;;;0.70;;
15952;SDS011;8075;47.766;8.846;2023-09-19T12:56:17;2.17;;;0.80;;
15952;SDS011;8075;47.766;8.846;2023-09-19T12:58:56;1.35;;;0.60;;
15952;SDS011;8075;47.766;8.846;2023-09-19T13:01:45;1.30;;;0.70;;
15952;SDS011;8075;47.766;8.846;2023-09-19T13:06:47;4.72;;;0.80;;
15952;SDS011;8075;47.766;8.846;2023-09-19T13:09:19;1.73;;;0.70;;
15952;SDS011;8075;47.766;8.846;2023-09-19T13:11:59;1.10;;;0.60;;
15952;SDS011;8075;47.766;8.846;2023-09-19T13:14:28;1.45;;;0.60;;
15952;SDS011;8075;47.766;8.846;2023-09-19T13:17:03;1.20;;;0.70;;
15952;SDS011;8075;47.766;8.846;2023-09-19T13:19:41;2.50;;;0.73;;
15952;SDS011;8075;47.766;8.846;2023-09-19T13:25:02;1.10;;;0.70;;
15952;SDS011;8075;47.766;8.846;2023-09-19T13:27:29;1.17;;;0.80;;
15952;SDS011;8075;47.766;8.846;2023-09-19T13:30:15;2.03;;;0.70;;
15952;SDS011;8075;47.766;8.846;2023-09-19T13:32:44;4.25;;;1.13;;
15952;SDS011;8075;47.766;8.846;2023-09-19T13:35:15;1.83;;;1.00;;
15952;SDS011;8075;47.766;8.846;2023-09-19T13:37:50;1.20;;;0.63;;
15952;SDS011;8075;47.766;8.846;2023-09-19T13:40:38;3.67;;;1.27;;
15952;SDS011;8075;47.766;8.846;2023-09-19T13:43:06;4.57;;;0.82;;
15952;SDS011;8075;47.766;8.846;2023-09-19T13:45:33;1.00;;;0.60;;
15952;SDS011;8075;47.766;8.846;2023-09-19T13:48:04;1.40;;;0.77;;
15952;SDS011;8075;47.766;8.846;2023-09-19T13:50:40;1.05;;;0.70;;
15952;SDS011;8075;47.766;8.846;2023-09-19T13:53:10;0.93;;;0.70;;
15952;SDS011;8075;47.766;8.846;2023-09-19T13:55:44;1.63;;;0.70;;
15952;SDS011;8075;47.766;8.846;2023-09-19T13:58:41;1.08;;;0.88;;
15952;SDS011;8075;47.766;8.846;2023-09-19T14:01:16;1.17;;;0.68;;
15952;SDS011;8075;47.766;8.846;2023-09-19T14:03:42;2.60;;;0.88;;
15952;SDS011;8075;47.766;8.846;2023-09-19T14:06:15;1.23;;;0.67;;
15952;SDS011;8075;47.766;8.846;2023-09-19T14:08:57;1.52;;;0.80;;
15952;SDS011;8075;47.766;8.846;2023-09-19T14:11:23;1.40;;;0.70;;
15952;SDS011;8075;47.766;8.846;2023-09-19T14:13:49;0.90;;;0.70;;
15952;SDS011;8075;47.766;8.846;2023-09-19T14:16:18;0.93;;;0.77;;
15952;SDS011;8075;47.766;8.846;2023-09-19T14:18:47;1.55;;;0.80;;
15952;SDS011;8075;47.766;8.846;2023-09-19T14:21:15;1.30;;;0.70;;
15952;SDS011;8075;47.766;8.846;2023-09-19T14:23:50;1.35;;;0.80;;
15952;SDS011;8075;47.766;8.846;2023-09-19T14:26:23;1.60;;;0.80;;
15952;SDS011;8075;47.766;8.846;2023-09-19T14:28:53;1.25;;;0.80;;
15952;SDS011;8075;47.766;8.846;2023-09-19T14:31:19;3.35;;;0.68;;
15952;SDS011;8075;47.766;8.846;2023-09-19T14:34:05;0.93;;;0.80;;
15952;SDS011;8075;47.766;8.846;2023-09-19T14:36:32;1.65;;;0.60;;
15952;SDS011;8075;47.766;8.846;2023-09-19T14:38:58;1.20;;;0.80;;
15952;SDS011;8075;47.766;8.846;2023-09-19T14:41:27;0.80;;;0.70;;
15952;SDS011;8075;47.766;8.846;2023-09-19T14:44:19;1.00;;;0.90;;
15952;SDS011;8075;47.766;8.846;2023-09-19T14:46:48;1.40;;;0.70;;
15952;SDS011;8075;47.766;8.846;2023-09-19T14:49:22;0.63;;;0.50;;
15952;SDS011;8075;47.766;8.846;2023-09-19T14:51:48;1.08;;;0.70;;
15952;SDS011;8075;47.766;8.846;2023-09-19T14:54:17;1.50;;;0.60;;
15952;SDS011;8075;47.766;8.846;2023-09-19T14:56:46;1.20;;;0.68;;
15952;SDS011;8075;47.766;8.846;2023-09-19T14:59:21;1.00;;;0.70;;
15952;SDS011;8075;47.766;8.846;2023-09-19T15:01:59;2.07;;;0.70;;
15952;SDS011;8075;47.766;8.846;2023-09-19T15:04:27;1.83;;;0.60;;
15952;SDS011;8075;47.766;8.846;2023-09-19T15:06:59;1.00;;;0.70;;
15952;SDS011;8075;47.766;8.846;2023-09-19T15:09:25;1.20;;;0.80;;
15952;SDS011;8075;47.766;8.846;2023-09-19T15:11:57;1.20;;;0.85;;
15952;SDS011;8075;47.766;8.846;2023-09-19T15:14:25;1.13;;;0.65;;
15952;SDS011;8075;47.766;8.846;2023-09-19T15:16:51;1.20;;;0.80;;
15952;SDS011;8075;47.766;8.846;2023-09-19T15:19:17;1.00;;;0.70;;
15952;SDS011;8075;47.766;8.846;2023-09-19T15:21:44;1.60;;;0.65;;
15952;SDS011;8075;47.766;8.846;2023-09-19T15:24:10;1.30;;;0.88;;
15952;SDS011;8075;47.766;8.846;2023-09-19T15:26:39;1.40;;;0.77;;
15952;SDS011;8075;47.766;8.846;2023-09-19T15:29:09;1.35;;;0.77;;
15952;SDS011;8075;47.766;8.846;2023-09-19T15:31:39;1.33;;;0.70;;
15952;SDS011;8075;47.766;8.846;2023-09-19T15:34:11;1.20;;;0.80;;
15952;SDS011;8075;47.766;8.846;2023-09-19T15:36:41;1.20;;;0.70;;
15952;SDS011;8075;47.766;8.846;2023-09-19T15:39:16;1.42;;;0.70;;
15952;SDS011;8075;47.766;8.846;2023-09-19T15:41:45;2.00;;;0.73;;
15952;SDS011;8075;47.766;8.846;2023-09-19T15:44:23;1.35;;;0.93;;
15952;SDS011;8075;47.766;8.846;2023-09-19T15:46:59;1.50;;;0.98;;
15952;SDS011;8075;47.766;8.846;2023-09-19T15:49:25;1.50;;;0.88;;
15952;SDS011;8075;47.766;8.846;2023-09-19T15:52:01;1.10;;;0.75;;
15952;SDS011;8075;47.766;8.846;2023-09-19T15:54:30;1.27;;;0.70;;
15952;SDS011;8075;47.766;8.846;2023-09-19T15:56:58;1.50;;;0.73;;
15952;SDS011;8075;47.766;8.846;2023-09-19T15:59:30;1.00;;;0.80;;
15952;SDS011;8075;47.766;8.846;2023-09-19T16:01:56;1.20;;;0.90;;